sensor_id;sensor_type;location;lat;lon;timestamp;pressure;altitude;pressure_sealevel;temperature;humidity
69574;BME280;62840;52.366;5.980;2024-02-23T00:02:28;98493.47;;;5.78;75.16
69574;BME280;62840;52.366;5.980;2024-02-23T00:04:54;98496.72;;;5.72;75.22
69574;BME280;62840;52.366;5.980;2024-02-23T00:07:20;98498.00;;;5.67;75.38
69574;BME280;62840;52.366;5.980;2024-02-23T00:09:46;98490.00;;;5.59;74.95
69574;BME280;62840;52.366;5.980;2024-02-23T00:12:12;98498.25;;;5.56;75.27
69574;BME280;62840;52.366;5.980;2024-02-23T00:14:38;98500.53;;;5.51;75.05
69574;BME280;62840;52.366;5.980;2024-02-23T00:17:03;98509.44;;;5.50;75.55
69574;BME280;62840;52.366;5.980;2024-02-23T00:19:32;98506.78;;;5.50;75.49
69574;BME280;62840;52.366;5.980;2024-02-23T00:21:58;98504.59;;;5.45;75.60
69574;BME280;62840;52.366;5.980;2024-02-23T00:24:24;98511.84;;;5.43;75.55
69574;BME280;62840;52.366;5.980;2024-02-23T00:26:50;98509.38;;;5.42;75.63
69574;BME280;62840;52.366;5.980;2024-02-23T00:29:16;98502.41;;;5.41;75.50
69574;BME280;62840;52.366;5.980;2024-02-23T00:31:42;98501.59;;;5.40;76.11
69574;BME280;62840;52.366;5.980;2024-02-23T00:34:08;98505.72;;;5.43;76.04
69574;BME280;62840;52.366;5.980;2024-02-23T00:36:37;98509.06;;;5.45;76.13
69574;BME280;62840;52.366;5.980;2024-02-23T00:39:03;98509.75;;;5.47;75.99
69574;BME280;62840;52.366;5.980;2024-02-23T00:41:29;98519.31;;;5.48;76.13
69574;BME280;62840;52.366;5.980;2024-02-23T00:43:55;98520.00;;;5.50;76.01
69574;BME280;62840;52.366;5.980;2024-02-23T00:46:21;98523.47;;;5.51;75.88
69574;BME280;62840;52.366;5.980;2024-02-23T00:48:47;98523.47;;;5.51;75.81
69574;BME280;62840;52.366;5.980;2024-02-23T00:51:13;98528.47;;;5.54;75.88
69574;BME280;62840;52.366;5.980;2024-02-23T00:53:41;98536.25;;;5.55;76.04
69574;BME280;62840;52.366;5.980;2024-02-23T00:56:07;98540.41;;;5.58;76.19
69574;BME280;62840;52.366;5.980;2024-02-23T00:58:33;98548.16;;;5.59;75.98
69574;BME280;62840;52.366;5.980;2024-02-23T01:00:59;98546.22;;;5.61;75.93
69574;BME280;62840;52.366;5.980;2024-02-23T01:03:26;98550.66;;;5.61;75.92
69574;BME280;62840;52.366;5.980;2024-02-23T01:05:52;98564.56;;;5.63;75.98
69574;BME280;62840;52.366;5.980;2024-02-23T01:08:19;98569.72;;;5.64;76.16
69574;BME280;62840;52.366;5.980;2024-02-23T01:10:47;98571.38;;;5.65;76.07
69574;BME280;62840;52.366;5.980;2024-02-23T01:13:13;98574.00;;;5.65;76.02
69574;BME280;62840;52.366;5.980;2024-02-23T01:15:39;98581.25;;;5.63;75.91
69574;BME280;62840;52.366;5.980;2024-02-23T01:18:06;98593.53;;;5.64;75.86
69574;BME280;62840;52.366;5.980;2024-02-23T01:20:32;98589.34;;;5.62;76.03
69574;BME280;62840;52.366;5.980;2024-02-23T01:22:58;98597.94;;;5.64;75.95
69574;BME280;62840;52.366;5.980;2024-02-23T01:25:24;98592.66;;;5.64;76.04
69574;BME280;62840;52.366;5.980;2024-02-23T01:27:52;98603.78;;;5.67;76.25
69574;BME280;62840;52.366;5.980;2024-02-23T01:30:18;98606.13;;;5.71;76.34
69574;BME280;62840;52.366;5.980;2024-02-23T01:32:44;98613.09;;;5.72;76.44
69574;BME280;62840;52.366;5.980;2024-02-23T01:35:10;98617.38;;;5.73;76.43
69574;BME280;62840;52.366;5.980;2024-02-23T01:37:36;98610.13;;;5.75;76.53
69574;BME280;62840;52.366;5.980;2024-02-23T01:40:03;98618.75;;;5.77;76.62
69574;BME280;62840;52.366;5.980;2024-02-23T01:42:29;98615.13;;;5.78;76.13
69574;BME280;62840;52.366;5.980;2024-02-23T01:44:58;98619.28;;;5.80;76.49
69574;BME280;62840;52.366;5.980;2024-02-23T01:47:24;98626.22;;;5.81;76.48
69574;BME280;62840;52.366;5.980;2024-02-23T01:49:51;98627.72;;;5.84;76.50
69574;BME280;62840;52.366;5.980;2024-02-23T01:52:20;98634.03;;;5.83;76.42
69574;BME280;62840;52.366;5.980;2024-02-23T01:54:47;98639.44;;;5.81;76.29
69574;BME280;62840;52.366;5.980;2024-02-23T01:57:17;98628.03;;;5.81;76.19
69574;BME280;62840;52.366;5.980;2024-02-23T01:59:43;98643.22;;;5.79;76.47
69574;BME280;62840;52.366;5.980;2024-02-23T02:02:12;98652.16;;;5.78;76.35
69574;BME280;62840;52.366;5.980;2024-02-23T02:04:38;98653.13;;;5.77;76.42
69574;BME280;62840;52.366;5.980;2024-02-23T02:07:04;98668.31;;;5.75;76.33
69574;BME280;62840;52.366;5.980;2024-02-23T02:09:30;98658.56;;;5.75;76.35
69574;BME280;62840;52.366;5.980;2024-02-23T02:11:57;98663.63;;;5.68;75.99
69574;BME280;62840;52.366;5.980;2024-02-23T02:14:23;98665.19;;;5.61;75.94
69574;BME280;62840;52.366;5.980;2024-02-23T02:16:49;98662.03;;;5.58;76.07
69574;BME280;62840;52.366;5.980;2024-02-23T02:19:17;98664.13;;;5.54;76.16
69574;BME280;62840;52.366;5.980;2024-02-23T02:21:43;98665.41;;;5.50;76.13
69574;BME280;62840;52.366;5.980;2024-02-23T02:24:09;98670.41;;;5.53;76.15
69574;BME280;62840;52.366;5.980;2024-02-23T02:26:37;98682.94;;;5.51;75.91
69574;BME280;62840;52.366;5.980;2024-02-23T02:29:03;98678.78;;;5.49;76.26
69574;BME280;62840;52.366;5.980;2024-02-23T02:31:28;98665.72;;;5.47;76.19
69574;BME280;62840;52.366;5.980;2024-02-23T02:33:54;98670.00;;;5.48;76.06
69574;BME280;62840;52.366;5.980;2024-02-23T02:36:23;98675.28;;;5.48;75.83
69574;BME280;62840;52.366;5.980;2024-02-23T02:38:49;98688.50;;;5.48;76.06
69574;BME280;62840;52.366;5.980;2024-02-23T02:41:16;98699.38;;;5.45;76.14
69574;BME280;62840;52.366;5.980;2024-02-23T02:43:44;98663.78;;;5.39;75.80
69574;BME280;62840;52.366;5.980;2024-02-23T02:46:10;98680.25;;;5.33;75.90
69574;BME280;62840;52.366;5.980;2024-02-23T02:48:36;98685.81;;;5.30;75.95
69574;BME280;62840;52.366;5.980;2024-02-23T02:51:02;98698.50;;;5.27;75.90
69574;BME280;62840;52.366;5.980;2024-02-23T02:53:30;98708.38;;;5.24;76.06
69574;BME280;62840;52.366;5.980;2024-02-23T02:55:56;98710.34;;;5.22;76.19
69574;BME280;62840;52.366;5.980;2024-02-23T02:58:22;98708.38;;;5.24;76.28
69574;BME280;62840;52.366;5.980;2024-02-23T03:00:48;98717.00;;;5.27;76.52
69574;BME280;62840;52.366;5.980;2024-02-23T03:03:14;98707.81;;;5.31;76.69
69574;BME280;62840;52.366;5.980;2024-02-23T03:05:40;98715.31;;;5.35;76.46
69574;BME280;62840;52.366;5.980;2024-02-23T03:08:06;98707.22;;;5.37;76.79
69574;BME280;62840;52.366;5.980;2024-02-23T03:10:35;98698.00;;;5.41;76.89
69574;BME280;62840;52.366;5.980;2024-02-23T03:13:01;98680.34;;;5.41;76.62
69574;BME280;62840;52.366;5.980;2024-02-23T03:15:27;98685.09;;;5.38;76.45
69574;BME280;62840;52.366;5.980;2024-02-23T03:17:52;98727.00;;;5.33;76.80
69574;BME280;62840;52.366;5.980;2024-02-23T03:20:18;98716.44;;;5.33;76.72
69574;BME280;62840;52.366;5.980;2024-02-23T03:22:44;98713.63;;;5.34;76.96
69574;BME280;62840;52.366;5.980;2024-02-23T03:25:10;98719.47;;;5.38;77.07
69574;BME280;62840;52.366;5.980;2024-02-23T03:27:39;98724.59;;;5.39;76.96
69574;BME280;62840;52.366;5.980;2024-02-23T03:30:06;98726.41;;;5.39;76.91
69574;BME280;62840;52.366;5.980;2024-02-23T03:32:32;98726.94;;;5.42;76.81
69574;BME280;62840;52.366;5.980;2024-02-23T03:34:58;98747.28;;;5.42;76.90
69574;BME280;62840;52.366;5.980;2024-02-23T03:37:24;98740.31;;;5.41;76.71
69574;BME280;62840;52.366;5.980;2024-02-23T03:39:50;98748.63;;;5.46;76.91
69574;BME280;62840;52.366;5.980;2024-02-23T03:42:16;98745.31;;;5.44;76.67
69574;BME280;62840;52.366;5.980;2024-02-23T03:44:44;98749.63;;;5.45;76.63
69574;BME280;62840;52.366;5.980;2024-02-23T03:47:10;98734.75;;;5.44;76.77
69574;BME280;62840;52.366;5.980;2024-02-23T03:49:36;98737.53;;;5.42;76.59
69574;BME280;62840;52.366;5.980;2024-02-23T03:52:02;98746.41;;;5.41;76.53
69574;BME280;62840;52.366;5.980;2024-02-23T03:54:29;98750.88;;;5.41;76.51
69574;BME280;62840;52.366;5.980;2024-02-23T03:56:55;98758.69;;;5.42;76.47
69574;BME280;62840;52.366;5.980;2024-02-23T03:59:20;98759.50;;;5.43;76.33
69574;BME280;62840;52.366;5.980;2024-02-23T04:01:49;98764.78;;;5.43;76.55
69574;BME280;62840;52.366;5.980;2024-02-23T04:04:15;98770.38;;;5.40;76.22
69574;BME280;62840;52.366;5.980;2024-02-23T04:06:42;98773.03;;;5.40;76.48
69574;BME280;62840;52.366;5.980;2024-02-23T04:09:08;98791.22;;;5.43;76.80
69574;BME280;62840;52.366;5.980;2024-02-23T04:11:34;98787.63;;;5.44;76.82
69574;BME280;62840;52.366;5.980;2024-02-23T04:14:00;98791.22;;;5.43;76.50
69574;BME280;62840;52.366;5.980;2024-02-23T04:16:26;98780.78;;;5.41;76.38
69574;BME280;62840;52.366;5.980;2024-02-23T04:18:55;98787.88;;;5.41;76.55
69574;BME280;62840;52.366;5.980;2024-02-23T04:21:21;98792.34;;;5.40;76.67
69574;BME280;62840;52.366;5.980;2024-02-23T04:23:47;98779.25;;;5.39;76.50
69574;BME280;62840;52.366;5.980;2024-02-23T04:26:13;98795.13;;;5.39;76.50
69574;BME280;62840;52.366;5.980;2024-02-23T04:28:39;98795.44;;;5.36;76.55
69574;BME280;62840;52.366;5.980;2024-02-23T04:31:05;98802.38;;;5.37;76.66
69574;BME280;62840;52.366;5.980;2024-02-23T04:33:31;98805.69;;;5.39;76.39
69574;BME280;62840;52.366;5.980;2024-02-23T04:36:00;98811.16;;;5.37;76.43
69574;BME280;62840;52.366;5.980;2024-02-23T04:38:26;98803.22;;;5.37;76.36
69574;BME280;62840;52.366;5.980;2024-02-23T04:40:52;98807.66;;;5.37;76.51
69574;BME280;62840;52.366;5.980;2024-02-23T04:43:18;98812.25;;;5.35;76.63
69574;BME280;62840;52.366;5.980;2024-02-23T04:45:43;98807.94;;;5.34;76.43
69574;BME280;62840;52.366;5.980;2024-02-23T04:48:09;98806.31;;;5.33;76.42
69574;BME280;62840;52.366;5.980;2024-02-23T04:50:35;98814.22;;;5.33;76.24
69574;BME280;62840;52.366;5.980;2024-02-23T04:53:04;98817.97;;;5.30;76.37
69574;BME280;62840;52.366;5.980;2024-02-23T04:55:30;98826.06;;;5.29;76.29
69574;BME280;62840;52.366;5.980;2024-02-23T04:57:55;98824.09;;;5.31;76.57
69574;BME280;62840;52.366;5.980;2024-02-23T05:00:22;98831.34;;;5.29;76.60
69574;BME280;62840;52.366;5.980;2024-02-23T05:02:47;98834.13;;;5.27;76.66
69574;BME280;62840;52.366;5.980;2024-02-23T05:05:13;98828.97;;;5.25;76.48
69574;BME280;62840;52.366;5.980;2024-02-23T05:07:39;98833.56;;;5.23;76.47
69574;BME280;62840;52.366;5.980;2024-02-23T05:10:09;98838.84;;;5.23;76.28
69574;BME280;62840;52.366;5.980;2024-02-23T05:12:35;98839.69;;;5.24;76.22
69574;BME280;62840;52.366;5.980;2024-02-23T05:15:01;98831.91;;;5.22;76.40
69574;BME280;62840;52.366;5.980;2024-02-23T05:17:27;98828.56;;;5.20;76.19
69574;BME280;62840;52.366;5.980;2024-02-23T05:19:53;98826.91;;;5.19;76.14
69574;BME280;62840;52.366;5.980;2024-02-23T05:22:19;98835.78;;;5.18;76.30
69574;BME280;62840;52.366;5.980;2024-02-23T05:24:45;98836.09;;;5.15;76.33
69574;BME280;62840;52.366;5.980;2024-02-23T05:27:13;98835.09;;;5.16;76.31
69574;BME280;62840;52.366;5.980;2024-02-23T05:29:39;98828.88;;;5.17;76.17
69574;BME280;62840;52.366;5.980;2024-02-23T05:32:05;98829.81;;;5.16;76.47
69574;BME280;62840;52.366;5.980;2024-02-23T05:34:32;98836.09;;;5.15;76.19
69574;BME280;62840;52.366;5.980;2024-02-23T05:36:57;98831.34;;;5.19;76.58
69574;BME280;62840;52.366;5.980;2024-02-23T05:39:23;98836.63;;;5.19;76.27
69574;BME280;62840;52.366;5.980;2024-02-23T05:41:49;98837.19;;;5.22;76.20
69574;BME280;62840;52.366;5.980;2024-02-23T05:44:18;98831.59;;;5.25;76.30
69574;BME280;62840;52.366;5.980;2024-02-23T05:46:44;98830.66;;;5.27;76.13
69574;BME280;62840;52.366;5.980;2024-02-23T05:49:09;98830.34;;;5.30;76.39
69574;BME280;62840;52.366;5.980;2024-02-23T05:51:35;98825.75;;;5.32;76.25
69574;BME280;62840;52.366;5.980;2024-02-23T05:54:01;98834.69;;;5.31;76.23
69574;BME280;62840;52.366;5.980;2024-02-23T05:56:27;98833.81;;;5.30;76.39
69574;BME280;62840;52.366;5.980;2024-02-23T05:58:53;98838.00;;;5.33;76.11
69574;BME280;62840;52.366;5.980;2024-02-23T06:01:22;98839.38;;;5.37;76.33
69574;BME280;62840;52.366;5.980;2024-02-23T06:03:47;98835.75;;;5.38;76.22
69574;BME280;62840;52.366;5.980;2024-02-23T06:06:13;98839.94;;;5.40;76.41
69574;BME280;62840;52.366;5.980;2024-02-23T06:08:39;98836.84;;;5.45;76.33
69574;BME280;62840;52.366;5.980;2024-02-23T06:11:05;98827.66;;;5.49;76.21
69574;BME280;62840;52.366;5.980;2024-02-23T06:13:31;98843.53;;;5.49;76.44
69574;BME280;62840;52.366;5.980;2024-02-23T06:15:57;98846.00;;;5.51;76.10
69574;BME280;62840;52.366;5.980;2024-02-23T06:18:25;98858.13;;;5.53;76.42
69574;BME280;62840;52.366;5.980;2024-02-23T06:20:51;98842.97;;;5.55;76.04
69574;BME280;62840;52.366;5.980;2024-02-23T06:23:17;98844.63;;;5.56;75.99
69574;BME280;62840;52.366;5.980;2024-02-23T06:25:43;98842.66;;;5.58;75.95
69574;BME280;62840;52.366;5.980;2024-02-23T06:28:09;98844.31;;;5.59;75.83
69574;BME280;62840;52.366;5.980;2024-02-23T06:30:35;98839.03;;;5.59;75.94
69574;BME280;62840;52.366;5.980;2024-02-23T06:33:01;98841.53;;;5.61;75.83
69574;BME280;62840;52.366;5.980;2024-02-23T06:35:29;98855.75;;;5.60;75.88
69574;BME280;62840;52.366;5.980;2024-02-23T06:37:55;98843.50;;;5.59;75.58
69574;BME280;62840;52.366;5.980;2024-02-23T06:40:21;98846.00;;;5.60;75.62
69574;BME280;62840;52.366;5.980;2024-02-23T06:42:47;98843.19;;;5.62;75.53
69574;BME280;62840;52.366;5.980;2024-02-23T06:45:13;98837.91;;;5.62;75.81
69574;BME280;62840;52.366;5.980;2024-02-23T06:47:39;98843.06;;;5.63;75.51
69574;BME280;62840;52.366;5.980;2024-02-23T06:50:06;98833.47;;;5.62;75.69
69574;BME280;62840;52.366;5.980;2024-02-23T06:52:35;98849.84;;;5.66;75.41
69574;BME280;62840;52.366;5.980;2024-02-23T06:55:01;98848.19;;;5.65;75.04
69574;BME280;62840;52.366;5.980;2024-02-23T06:57:27;98849.03;;;5.65;75.07
69574;BME280;62840;52.366;5.980;2024-02-23T06:59:52;98856.00;;;5.66;75.30
69574;BME280;62840;52.366;5.980;2024-02-23T07:02:18;98854.31;;;5.65;75.06
69574;BME280;62840;52.366;5.980;2024-02-23T07:04:44;98859.47;;;5.67;75.15
69574;BME280;62840;52.366;5.980;2024-02-23T07:07:10;98855.00;;;5.67;75.24
69574;BME280;62840;52.366;5.980;2024-02-23T07:09:38;98868.09;;;5.69;75.29
69574;BME280;62840;52.366;5.980;2024-02-23T07:12:06;98856.66;;;5.68;75.24
69574;BME280;62840;52.366;5.980;2024-02-23T07:14:32;98869.31;;;5.75;75.14
69574;BME280;62840;52.366;5.980;2024-02-23T07:16:58;98864.03;;;5.75;75.05
69574;BME280;62840;52.366;5.980;2024-02-23T07:19:24;98855.13;;;5.76;74.79
69574;BME280;62840;52.366;5.980;2024-02-23T07:21:50;98871.00;;;5.76;75.06
69574;BME280;62840;52.366;5.980;2024-02-23T07:24:15;98868.19;;;5.77;75.00
69574;BME280;62840;52.366;5.980;2024-02-23T07:26:44;98870.69;;;5.79;74.51
69574;BME280;62840;52.366;5.980;2024-02-23T07:29:10;98878.34;;;5.82;74.69
69574;BME280;62840;52.366;5.980;2024-02-23T07:31:36;98886.28;;;5.82;74.43
69574;BME280;62840;52.366;5.980;2024-02-23T07:34:01;98885.31;;;5.83;74.73
69574;BME280;62840;52.366;5.980;2024-02-23T07:36:27;98890.28;;;5.86;74.71
69574;BME280;62840;52.366;5.980;2024-02-23T07:38:53;98887.38;;;5.89;74.79
69574;BME280;62840;52.366;5.980;2024-02-23T07:41:19;98887.09;;;5.92;74.56
69574;BME280;62840;52.366;5.980;2024-02-23T07:43:48;98881.50;;;5.95;74.63
69574;BME280;62840;52.366;5.980;2024-02-23T07:46:13;98889.28;;;5.97;74.49
69574;BME280;62840;52.366;5.980;2024-02-23T07:48:39;98888.16;;;5.99;74.63
69574;BME280;62840;52.366;5.980;2024-02-23T07:51:05;98884.56;;;6.00;74.53
69574;BME280;62840;52.366;5.980;2024-02-23T07:53:31;98889.84;;;6.00;74.50
69574;BME280;62840;52.366;5.980;2024-02-23T07:55:58;98889.84;;;6.00;74.38
69574;BME280;62840;52.366;5.980;2024-02-23T07:58:25;98893.44;;;5.99;74.47
69574;BME280;62840;52.366;5.980;2024-02-23T08:00:53;98892.19;;;6.03;74.49
69574;BME280;62840;52.366;5.980;2024-02-23T08:03:19;98880.59;;;6.04;74.13
69574;BME280;62840;52.366;5.980;2024-02-23T08:05:45;98882.56;;;6.02;74.18
69574;BME280;62840;52.366;5.980;2024-02-23T08:08:11;98898.44;;;6.02;74.07
69574;BME280;62840;52.366;5.980;2024-02-23T08:10:38;98875.31;;;6.04;74.16
69574;BME280;62840;52.366;5.980;2024-02-23T08:13:04;98885.63;;;6.07;73.86
69574;BME280;62840;52.366;5.980;2024-02-23T08:15:30;98876.69;;;6.08;73.88
69574;BME280;62840;52.366;5.980;2024-02-23T08:17:58;98872.22;;;6.09;73.92
69574;BME280;62840;52.366;5.980;2024-02-23T08:20:24;98870.28;;;6.11;73.89
69574;BME280;62840;52.366;5.980;2024-02-23T08:22:50;98874.44;;;6.14;74.04
69574;BME280;62840;52.366;5.980;2024-02-23T08:25:16;98869.00;;;6.15;73.22
69574;BME280;62840;52.366;5.980;2024-02-23T08:27:42;98861.88;;;6.16;73.64
69574;BME280;62840;52.366;5.980;2024-02-23T08:30:09;98865.22;;;6.18;73.84
69574;BME280;62840;52.366;5.980;2024-02-23T08:32:35;98865.63;;;6.23;73.48
69574;BME280;62840;52.366;5.980;2024-02-23T08:35:05;98861.31;;;6.22;73.49
69574;BME280;62840;52.366;5.980;2024-02-23T08:37:31;98853.06;;;6.25;73.44
69574;BME280;62840;52.366;5.980;2024-02-23T08:39:57;98863.50;;;6.26;73.17
69574;BME280;62840;52.366;5.980;2024-02-23T08:42:23;98850.13;;;6.28;73.18
69574;BME280;62840;52.366;5.980;2024-02-23T08:44:49;98853.47;;;6.30;73.26
69574;BME280;62840;52.366;5.980;2024-02-23T08:47:15;98848.84;;;6.32;73.26
69574;BME280;62840;52.366;5.980;2024-02-23T08:49:41;98853.16;;;6.33;72.95
69574;BME280;62840;52.366;5.980;2024-02-23T08:52:09;98847.88;;;6.33;73.17
69574;BME280;62840;52.366;5.980;2024-02-23T08:54:35;98847.72;;;6.35;73.11
69574;BME280;62840;52.366;5.980;2024-02-23T08:57:01;98843.13;;;6.37;73.35
69574;BME280;62840;52.366;5.980;2024-02-23T08:59:27;98852.25;;;6.42;73.33
69574;BME280;62840;52.366;5.980;2024-02-23T09:01:53;98840.41;;;6.46;73.00
69574;BME280;62840;52.366;5.980;2024-02-23T09:04:18;98830.50;;;6.48;72.82
69574;BME280;62840;52.366;5.980;2024-02-23T09:06:44;98838.28;;;6.50;72.79
69574;BME280;62840;52.366;5.980;2024-02-23T09:09:13;98827.53;;;6.51;72.86
69574;BME280;62840;52.366;5.980;2024-02-23T09:11:39;98835.88;;;6.57;72.51
69574;BME280;62840;52.366;5.980;2024-02-23T09:14:05;98836.53;;;6.59;72.53
69574;BME280;62840;52.366;5.980;2024-02-23T09:16:30;98829.94;;;6.63;72.60
69574;BME280;62840;52.366;5.980;2024-02-23T09:18:56;98832.00;;;6.69;72.71
69574;BME280;62840;52.366;5.980;2024-02-23T09:21:22;98836.97;;;6.72;72.46
69574;BME280;62840;52.366;5.980;2024-02-23T09:23:48;98826.38;;;6.72;72.38
69574;BME280;62840;52.366;5.980;2024-02-23T09:26:17;98829.72;;;6.74;72.42
69574;BME280;62840;52.366;5.980;2024-02-23T09:28:43;98827.06;;;6.74;72.33
69574;BME280;62840;52.366;5.980;2024-02-23T09:31:08;98831.53;;;6.74;71.90
69574;BME280;62840;52.366;5.980;2024-02-23T09:33:34;98836.97;;;6.72;72.15
69574;BME280;62840;52.366;5.980;2024-02-23T09:36:00;98829.22;;;6.70;72.18
69574;BME280;62840;52.366;5.980;2024-02-23T09:38:26;98838.81;;;6.71;72.18
69574;BME280;62840;52.366;5.980;2024-02-23T09:40:52;98836.97;;;6.72;72.35
69574;BME280;62840;52.366;5.980;2024-02-23T09:43:21;98836.16;;;6.71;72.13
69574;BME280;62840;52.366;5.980;2024-02-23T09:45:47;98837.16;;;6.70;71.14
69574;BME280;62840;52.366;5.980;2024-02-23T09:48:18;98831.00;;;6.70;71.37
69574;BME280;62840;52.366;5.980;2024-02-23T09:50:45;98836.97;;;6.72;71.74
69574;BME280;62840;52.366;5.980;2024-02-23T09:53:13;98831.41;;;6.75;71.76
69574;BME280;62840;52.366;5.980;2024-02-23T09:55:39;98840.84;;;6.78;71.45
69574;BME280;62840;52.366;5.980;2024-02-23T09:58:06;98837.75;;;6.82;71.49
69574;BME280;62840;52.366;5.980;2024-02-23T10:00:38;98845.09;;;6.88;71.72
69574;BME280;62840;52.366;5.980;2024-02-23T10:03:05;98845.78;;;6.90;72.00
69574;BME280;62840;52.366;5.980;2024-02-23T10:05:31;98848.81;;;6.96;71.84
69574;BME280;62840;52.366;5.980;2024-02-23T10:07:57;98846.97;;;6.96;71.73
69574;BME280;62840;52.366;5.980;2024-02-23T10:10:24;98851.00;;;7.00;71.85
69574;BME280;62840;52.366;5.980;2024-02-23T10:12:54;98842.91;;;7.02;71.68
69574;BME280;62840;52.366;5.980;2024-02-23T10:15:20;98844.53;;;7.03;71.66
69574;BME280;62840;52.366;5.980;2024-02-23T10:17:48;98840.94;;;7.04;71.76
69574;BME280;62840;52.366;5.980;2024-02-23T10:20:14;98847.88;;;7.05;71.76
69574;BME280;62840;52.366;5.980;2024-02-23T10:22:40;98850.22;;;7.08;71.71
69574;BME280;62840;52.366;5.980;2024-02-23T10:25:07;98864.16;;;7.10;71.76
69574;BME280;62840;52.366;5.980;2024-02-23T10:27:33;98866.78;;;7.10;71.73
69574;BME280;62840;52.366;5.980;2024-02-23T10:29:59;98855.50;;;7.08;71.69
69574;BME280;62840;52.366;5.980;2024-02-23T10:32:27;98876.88;;;7.06;71.64
69574;BME280;62840;52.366;5.980;2024-02-23T10:35:00;98889.47;;;7.04;71.40
69574;BME280;62840;52.366;5.980;2024-02-23T10:37:26;98885.28;;;7.02;71.87
69574;BME280;62840;52.366;5.980;2024-02-23T10:39:57;98887.25;;;7.00;71.64
69574;BME280;62840;52.366;5.980;2024-02-23T10:42:33;98885.59;;;6.99;71.83
69574;BME280;62840;52.366;5.980;2024-02-23T10:45:02;98896.88;;;7.01;72.19
69574;BME280;62840;52.366;5.980;2024-02-23T10:47:28;98893.94;;;7.04;72.06
69574;BME280;62840;52.366;5.980;2024-02-23T10:50:00;98883.00;;;7.07;72.32
69574;BME280;62840;52.366;5.980;2024-02-23T10:52:26;98898.31;;;7.13;72.04
69574;BME280;62840;52.366;5.980;2024-02-23T10:54:53;98894.53;;;7.16;72.15
69574;BME280;62840;52.366;5.980;2024-02-23T10:57:21;98901.00;;;7.21;72.28
69574;BME280;62840;52.366;5.980;2024-02-23T10:59:47;98905.03;;;7.25;71.99
69574;BME280;62840;52.366;5.980;2024-02-23T11:02:15;98909.03;;;7.29;71.97
69574;BME280;62840;52.366;5.980;2024-02-23T11:04:46;98901.91;;;7.30;72.00
69574;BME280;62840;52.366;5.980;2024-02-23T11:07:19;98891.16;;;7.31;71.86
69574;BME280;62840;52.366;5.980;2024-02-23T11:09:49;98911.56;;;7.31;72.06
69574;BME280;62840;52.366;5.980;2024-02-23T11:12:22;98903.75;;;7.29;71.76
69574;BME280;62840;52.366;5.980;2024-02-23T11:14:48;98902.38;;;7.25;71.85
69574;BME280;62840;52.366;5.980;2024-02-23T11:17:18;98918.59;;;7.22;72.10
69574;BME280;62840;52.366;5.980;2024-02-23T11:19:46;98912.63;;;7.20;71.73
69574;BME280;62840;52.366;5.980;2024-02-23T11:22:23;98909.13;;;7.20;72.08
69574;BME280;62840;52.366;5.980;2024-02-23T11:24:49;98920.56;;;7.20;72.06
69574;BME280;62840;52.366;5.980;2024-02-23T11:27:15;98913.31;;;7.22;71.97
69574;BME280;62840;52.366;5.980;2024-02-23T11:29:41;98913.31;;;7.22;72.13
69574;BME280;62840;52.366;5.980;2024-02-23T11:32:13;98919.28;;;7.24;72.15
69574;BME280;62840;52.366;5.980;2024-02-23T11:34:39;98916.63;;;7.24;71.96
69574;BME280;62840;52.366;5.980;2024-02-23T11:37:09;98921.31;;;7.30;72.03
69574;BME280;62840;52.366;5.980;2024-02-23T11:39:38;98917.38;;;7.34;71.93
69574;BME280;62840;52.366;5.980;2024-02-23T11:42:05;98932.69;;;7.41;71.94
69574;BME280;62840;52.366;5.980;2024-02-23T11:44:32;98920.63;;;7.46;72.00
69574;BME280;62840;52.366;5.980;2024-02-23T11:46:58;98927.28;;;7.50;71.93
69574;BME280;62840;52.366;5.980;2024-02-23T11:49:27;98924.19;;;7.55;71.72
69574;BME280;62840;52.366;5.980;2024-02-23T11:51:53;98922.19;;;7.57;71.80
69574;BME280;62840;52.366;5.980;2024-02-23T11:54:19;98940.78;;;7.57;71.30
69574;BME280;62840;52.366;5.980;2024-02-23T11:56:48;98935.19;;;7.60;71.57
69574;BME280;62840;52.366;5.980;2024-02-23T11:59:14;98936.16;;;7.59;71.55
69574;BME280;62840;52.366;5.980;2024-02-23T12:01:40;98948.44;;;7.60;71.50
69574;BME280;62840;52.366;5.980;2024-02-23T12:04:06;98933.84;;;7.64;71.58
69574;BME280;62840;52.366;5.980;2024-02-23T12:06:33;98931.88;;;7.66;71.43
69574;BME280;62840;52.366;5.980;2024-02-23T12:08:59;98927.25;;;7.68;71.25
69574;BME280;62840;52.366;5.980;2024-02-23T12:11:26;98920.66;;;7.72;71.00
69574;BME280;62840;52.366;5.980;2024-02-23T12:13:55;98923.16;;;7.74;71.07
69574;BME280;62840;52.366;5.980;2024-02-23T12:16:21;98925.63;;;7.75;71.04
69574;BME280;62840;52.366;5.980;2024-02-23T12:18:53;98927.00;;;7.80;71.23
69574;BME280;62840;52.366;5.980;2024-02-23T12:21:19;98930.00;;;7.85;70.56
69574;BME280;62840;52.366;5.980;2024-02-23T12:23:45;98933.34;;;7.87;70.65
69574;BME280;62840;52.366;5.980;2024-02-23T12:26:15;98940.31;;;7.88;70.86
69574;BME280;62840;52.366;5.980;2024-02-23T12:28:42;98944.81;;;7.87;70.83
69574;BME280;62840;52.366;5.980;2024-02-23T12:31:11;98939.50;;;7.87;70.83
69574;BME280;62840;52.366;5.980;2024-02-23T12:33:38;98939.50;;;7.87;70.43
69574;BME280;62840;52.366;5.980;2024-02-23T12:36:05;98944.81;;;7.87;70.44
69574;BME280;62840;52.366;5.980;2024-02-23T12:38:32;98948.97;;;7.90;70.60
69574;BME280;62840;52.366;5.980;2024-02-23T12:40:59;98955.94;;;7.91;70.86
69574;BME280;62840;52.366;5.980;2024-02-23T12:43:26;98945.31;;;7.91;70.51
69574;BME280;62840;52.366;5.980;2024-02-23T12:45:52;98944.34;;;7.92;70.62
69574;BME280;62840;52.366;5.980;2024-02-23T12:48:22;98955.63;;;7.94;70.66
69574;BME280;62840;52.366;5.980;2024-02-23T12:50:48;98953.63;;;7.96;70.40
69574;BME280;62840;52.366;5.980;2024-02-23T12:53:30;98950.53;;;8.01;70.47
69574;BME280;62840;52.366;5.980;2024-02-23T12:55:58;98954.97;;;8.00;70.06
69574;BME280;62840;52.366;5.980;2024-02-23T12:58:24;98948.03;;;7.99;70.49
69574;BME280;62840;52.366;5.980;2024-02-23T13:00:50;98960.97;;;8.02;70.17
69574;BME280;62840;52.366;5.980;2024-02-23T13:03:15;98958.03;;;8.05;70.45
69574;BME280;62840;52.366;5.980;2024-02-23T13:05:44;98961.84;;;8.11;70.57
69574;BME280;62840;52.366;5.980;2024-02-23T13:08:10;98965.72;;;8.16;70.55